createdAt,value
2023-02-12T00:00:02.286Z,103689.25
2023-02-12T00:02:37.223Z,103691.88
2023-02-12T00:05:05.840Z,103682.94
2023-02-12T00:07:35.213Z,103696.97
2023-02-12T00:10:04.529Z,103694.44
2023-02-12T00:12:33.954Z,103702.28
2023-02-12T00:15:04.647Z,103687.34
2023-02-12T00:17:36.853Z,103688.38
2023-02-12T00:20:14.996Z,103688.22
2023-02-12T00:22:52.388Z,103688.19
2023-02-12T00:25:22.608Z,103698.84
2023-02-12T00:27:59.640Z,103680.25
2023-02-12T00:30:31.135Z,103683.81
2023-02-12T00:33:01.443Z,103683.81
2023-02-12T00:35:32.810Z,103685.78
2023-02-12T00:38:02.147Z,103681.09
2023-02-12T00:40:37.005Z,103681.00
2023-02-12T00:43:06.185Z,103684.56
2023-02-12T00:45:34.150Z,103669.50
2023-02-12T00:48:05.163Z,103681.38
2023-02-12T00:51:20.247Z,103683.06
2023-02-12T00:54:09.929Z,103672.09
2023-02-12T00:57:13.422Z,103662.41
2023-02-12T00:59:42.899Z,103686.25
2023-02-12T01:02:10.918Z,103686.22
2023-02-12T01:04:40.246Z,103689.75
2023-02-12T01:07:30.494Z,103656.75
2023-02-12T01:09:59.852Z,103686.91
2023-02-12T01:12:32.073Z,103686.78
2023-02-12T01:15:03.061Z,103680.63
2023-02-12T01:17:31.197Z,103681.47
2023-02-12T01:20:13.495Z,103667.00
2023-02-12T01:22:43.548Z,103664.25
2023-02-12T01:25:18.174Z,103680.44
2023-02-12T01:27:49.477Z,103683.81
2023-02-12T01:30:18.084Z,103688.28
2023-02-12T01:32:51.240Z,103685.47
2023-02-12T01:35:19.534Z,103679.38
2023-02-12T01:37:51.758Z,103693.31
2023-02-12T01:40:38.155Z,103681.69
2023-02-12T01:43:12.840Z,103687.16
2023-02-12T01:45:50.159Z,103677.25
2023-02-12T01:48:20.049Z,103671.13
2023-02-12T01:50:50.434Z,103694.16
2023-02-12T01:53:48.026Z,103699.50
2023-02-12T01:56:24.029Z,103698.56
2023-02-12T01:58:59.047Z,103696.78
2023-02-12T02:01:34.988Z,103692.38
2023-02-12T02:04:16.498Z,103669.16
2023-02-12T02:06:50.278Z,103687.06
2023-02-12T02:09:20.900Z,103669.16
2023-02-12T02:12:08.983Z,103679.78
2023-02-12T02:14:37.646Z,103698.56
2023-02-12T02:17:32.867Z,103689.63
2023-02-12T02:20:36.834Z,103687.91
2023-02-12T02:23:23.704Z,103691.41
2023-02-12T02:26:31.149Z,103687.06
2023-02-12T02:29:21.737Z,103681.81
2023-02-12T02:31:57.233Z,103677.38
2023-02-12T02:34:43.777Z,103673.03
2023-02-12T02:37:23.589Z,103679.16
2023-02-12T02:39:57.470Z,103664.06
2023-02-12T02:42:33.148Z,103666.81
2023-02-12T02:45:08.627Z,103667.00
2023-02-12T02:47:42.641Z,103668.75
2023-02-12T02:50:14.988Z,103668.69
2023-02-12T02:52:49.472Z,103658.19
2023-02-12T02:55:32.121Z,103644.72
2023-02-12T02:58:10.276Z,103643.91
2023-02-12T03:00:53.316Z,103667.03
2023-02-12T03:03:52.112Z,103667.00
2023-02-12T03:06:39.045Z,103665.97
2023-02-12T03:09:41.672Z,103672.19
2023-02-12T03:12:22.885Z,103660.88
2023-02-12T03:14:56.341Z,103657.28
2023-02-12T03:17:41.068Z,103666.13
2023-02-12T03:20:39.241Z,103671.34
2023-02-12T03:23:22.671Z,103659.03
2023-02-12T03:25:57.098Z,103635.88
2023-02-12T03:28:42.109Z,103651.94
2023-02-12T03:31:26.754Z,103656.34
2023-02-12T03:34:10.154Z,103645.78
2023-02-12T03:37:00.790Z,103659.06
2023-02-12T03:39:45.289Z,103653.03
2023-02-12T03:42:24.446Z,103647.56
2023-02-12T03:44:57.783Z,103649.34
2023-02-12T03:47:41.446Z,103645.78
2023-02-12T03:50:15.230Z,103654.53
2023-02-12T03:53:11.903Z,103640.25
2023-02-12T03:55:55.725Z,103646.53
2023-02-12T03:58:33.355Z,103661.66
2023-02-12T04:01:02.585Z,103649.09
2023-02-12T04:03:33.192Z,103661.56
2023-02-12T04:06:12.401Z,103673.88
2023-02-12T04:08:50.341Z,103649.94
2023-02-12T04:11:37.606Z,103641.78
2023-02-12T04:14:26.164Z,103664.16
2023-02-12T04:17:06.586Z,103659.75
2023-02-12T04:19:44.881Z,103665.88
2023-02-12T04:22:35.331Z,103651.75
2023-02-12T04:25:26.307Z,103664.94
2023-02-12T04:28:01.291Z,103663.16
2023-02-12T04:30:37.057Z,103677.16
2023-02-12T04:33:07.877Z,103680.63
2023-02-12T04:35:40.024Z,103685.00
2023-02-12T04:38:19.853Z,103685.88
2023-02-12T04:40:52.899Z,103684.09
2023-02-12T04:43:36.736Z,103696.41
2023-02-12T04:46:06.746Z,103691.03
2023-02-12T04:48:39.969Z,103688.91
2023-02-12T04:51:11.807Z,103706.00
2023-02-12T04:53:41.112Z,103689.88
2023-02-12T04:56:19.818Z,103702.41
2023-02-12T04:58:51.591Z,103694.47
2023-02-12T05:01:23.320Z,103695.34
2023-02-12T05:03:53.045Z,103697.13
2023-02-12T05:06:23.536Z,103706.72
2023-02-12T05:08:53.963Z,103688.16
2023-02-12T05:11:25.472Z,103698.72
2023-02-12T05:14:02.976Z,103678.28
2023-02-12T05:16:31.172Z,103683.75
2023-02-12T05:19:01.420Z,103696.97
2023-02-12T05:21:36.978Z,103687.41
2023-02-12T05:24:07.678Z,103689.16
2023-02-12T05:26:37.604Z,103687.31
2023-02-12T05:29:05.583Z,103689.16
2023-02-12T05:31:34.887Z,103694.34
2023-02-12T05:34:06.645Z,103689.16
2023-02-12T05:36:49.958Z,103681.06
2023-02-12T05:39:27.474Z,103701.38
2023-02-12T05:42:06.356Z,103703.25
2023-02-12T05:47:21.576Z,103667.94
2023-02-12T05:49:52.787Z,103672.38
2023-02-12T05:52:28.056Z,103696.25
2023-02-12T05:55:08.277Z,103692.72
2023-02-12T05:57:40.138Z,103690.03
2023-02-12T06:00:10.282Z,103689.09
2023-02-12T06:02:44.626Z,103688.22
2023-02-12T06:05:15.937Z,103688.81
2023-02-12T06:07:50.809Z,103691.63
2023-02-12T06:10:23.237Z,103693.31
2023-02-12T06:12:58.761Z,103675.53
2023-02-12T06:15:29.428Z,103684.63
2023-02-12T06:18:13.102Z,103689.03
2023-02-12T06:20:42.442Z,103702.94
2023-02-12T06:23:15.139Z,103695.75
2023-02-12T06:25:44.260Z,103702.78
2023-02-12T06:28:20.493Z,103674.38
2023-02-12T06:30:48.561Z,103704.53
2023-02-12T06:33:21.050Z,103710.66
2023-02-12T06:35:57.238Z,103699.97
2023-02-12T06:38:27.920Z,103704.47
2023-02-12T06:41:03.323Z,103713.03
2023-02-12T06:43:39.070Z,103696.22
2023-02-12T06:46:10.174Z,103730.16
2023-02-12T06:48:40.072Z,103735.22
2023-02-12T06:51:12.090Z,103727.44
2023-02-12T06:53:40.525Z,103719.28
2023-02-12T06:56:11.494Z,103724.53
2023-02-12T06:58:43.755Z,103735.25
2023-02-12T07:01:17.859Z,103734.38
2023-02-12T07:03:56.062Z,103732.44
2023-02-12T07:06:30.351Z,103735.91
2023-02-12T07:09:00.713Z,103745.72
2023-02-12T07:11:39.986Z,103722.72
2023-02-12T07:14:15.170Z,103742.44
2023-02-12T07:16:43.629Z,103753.91
2023-02-12T07:19:17.675Z,103759.06
2023-02-12T07:21:45.714Z,103748.44
2023-02-12T07:24:23.702Z,103751.34
2023-02-12T07:26:59.421Z,103752.97
2023-02-12T07:29:31.054Z,103744.09
2023-02-12T07:32:05.583Z,103740.41
2023-02-12T07:34:38.269Z,103740.75
2023-02-12T07:38:43.017Z,103770.94
2023-02-12T07:40:10.799Z,103734.63
2023-02-12T07:42:57.168Z,103764.13
2023-02-12T07:45:28.691Z,103783.34
2023-02-12T07:48:00.987Z,103744.53
2023-02-12T07:50:31.191Z,103778.91
2023-02-12T07:53:11.250Z,103747.19
2023-02-12T07:56:09.007Z,103763.34
2023-02-12T07:58:38.791Z,103759.03
2023-02-12T08:01:21.546Z,103751.00
2023-02-12T08:04:01.277Z,103778.69
2023-02-12T08:06:31.201Z,103783.34
2023-02-12T08:09:09.299Z,103781.34
2023-02-12T08:11:45.309Z,103783.50
2023-02-12T08:14:21.103Z,103761.50
2023-02-12T08:16:53.548Z,103769.41
2023-02-12T08:19:25.734Z,103788.34
2023-02-12T08:21:58.674Z,103781.25
2023-02-12T08:25:13.730Z,103792.47
2023-02-12T08:27:23.154Z,103794.81
2023-02-12T08:29:52.985Z,103790.59
2023-02-12T08:32:22.658Z,103806.75
2023-02-12T08:34:55.407Z,103799.53
2023-02-12T08:37:27.492Z,103804.00
2023-02-12T08:39:57.368Z,103809.88
2023-02-12T08:42:27.929Z,103797.47
2023-02-12T08:45:17.028Z,103793.19
2023-02-12T08:49:41.439Z,103791.94
2023-02-12T08:51:04.018Z,103814.69
2023-02-12T08:56:34.371Z,103817.25
2023-02-12T08:59:04.088Z,103829.59
2023-02-12T09:01:42.836Z,103815.72
2023-02-12T09:04:19.172Z,103828.94
2023-02-12T09:06:49.532Z,103845.22
2023-02-12T09:09:19.719Z,103833.41
2023-02-12T09:11:50.676Z,103843.13
2023-02-12T09:14:25.145Z,103850.06
2023-02-12T09:17:01.792Z,103858.13
2023-02-12T09:19:32.816Z,103864.00
2023-02-12T09:22:08.640Z,103854.41
2023-02-12T09:24:37.979Z,103844.91
2023-02-12T09:27:06.708Z,103859.16
2023-02-12T09:29:41.933Z,103841.06
2023-02-12T09:32:10.544Z,103872.34
2023-02-12T09:34:42.477Z,103861.72
2023-02-12T09:37:10.444Z,103879.72
2023-02-12T09:39:48.555Z,103881.16
2023-02-12T09:42:35.556Z,103854.78
2023-02-12T09:45:16.779Z,103881.75
2023-02-12T09:47:57.394Z,103881.28
2023-02-12T09:50:46.867Z,103882.13
2023-02-12T09:53:19.369Z,103899.94
2023-02-12T09:55:58.102Z,103878.88
2023-02-12T09:58:37.840Z,103896.34
2023-02-12T10:01:17.034Z,103910.72
2023-02-12T10:03:53.985Z,103916.16
2023-02-12T10:06:31.513Z,103894.38
2023-02-12T10:09:48.451Z,103887.84
2023-02-12T10:12:27.137Z,103906.69
2023-02-12T10:15:58.434Z,103928.19
2023-02-12T10:18:48.266Z,103933.66
2023-02-12T10:21:44.588Z,103923.19
2023-02-12T10:24:53.479Z,103939.91
2023-02-12T10:27:32.545Z,103914.84
2023-02-12T10:30:17.313Z,103953.00
2023-02-12T10:32:48.983Z,103941.47
2023-02-12T10:35:22.414Z,103941.66
2023-02-12T10:38:01.298Z,103950.28
2023-02-12T10:40:38.420Z,103930.91
2023-02-12T10:43:18.209Z,103917.97
2023-02-12T10:45:54.587Z,103905.69
2023-02-12T10:48:27.239Z,103926.31
2023-02-12T10:51:25.339Z,103924.16
2023-02-12T10:54:02.450Z,103907.97
2023-02-12T10:56:42.640Z,103913.94
2023-02-12T10:59:30.236Z,103895.25
2023-02-12T11:02:02.245Z,103896.31
2023-02-12T11:04:46.834Z,103896.50
2023-02-12T11:07:42.353Z,103899.25
2023-02-12T11:10:38.567Z,103908.53
2023-02-12T11:13:29.917Z,103917.78
2023-02-12T11:16:16.134Z,103902.44
2023-02-12T11:18:48.878Z,103889.59
2023-02-12T11:21:27.386Z,103869.97
2023-02-12T11:24:00.571Z,103850.78
2023-02-12T11:26:43.980Z,103876.66
2023-02-12T11:29:24.489Z,103871.06
2023-02-12T11:32:04.041Z,103828.44
2023-02-12T11:34:34.516Z,103823.22
2023-02-12T11:37:04.032Z,103785.31
2023-02-12T11:39:47.439Z,103784.56
2023-02-12T11:42:25.508Z,103711.00
2023-02-12T11:45:03.597Z,103703.00
2023-02-12T11:47:44.392Z,103650.72
2023-02-12T11:50:28.616Z,103658.69
2023-02-12T11:53:27.204Z,103641.50
2023-02-12T11:56:03.426Z,103660.00
2023-02-12T11:58:34.342Z,103651.72
2023-02-12T12:01:15.921Z,103684.44
2023-02-12T12:03:53.300Z,103700.53
2023-02-12T12:06:33.881Z,103705.94
2023-02-12T12:09:06.441Z,103714.09
2023-02-12T12:11:48.186Z,103691.25
2023-02-12T12:14:25.595Z,103680.72
2023-02-12T12:17:18.100Z,103647.78
2023-02-12T12:19:54.834Z,103655.59
2023-02-12T12:22:31.689Z,103657.44
2023-02-12T12:25:07.038Z,103646.56
2023-02-12T12:28:01.696Z,103652.81
2023-02-12T12:30:56.802Z,103631.50
2023-02-12T12:33:36.273Z,103655.53
2023-02-12T12:36:34.858Z,103646.69
2023-02-12T12:39:11.742Z,103637.78
2023-02-12T12:42:13.014Z,103622.81
2023-02-12T12:44:56.605Z,103599.81
2023-02-12T12:47:32.866Z,103583.72
2023-02-12T12:50:19.096Z,103598.75
2023-02-12T12:52:59.975Z,103610.97
2023-02-12T12:56:14.778Z,103607.50
2023-02-12T12:59:00.287Z,103602.19
2023-02-12T13:01:58.155Z,103595.88
2023-02-12T13:05:02.349Z,103597.59
2023-02-12T13:07:44.626Z,103599.41
2023-02-12T13:10:21.853Z,103578.16
2023-02-12T13:13:08.000Z,103579.94
2023-02-12T13:15:42.074Z,103584.22
2023-02-12T13:18:21.613Z,103574.34
2023-02-12T13:20:58.762Z,103579.66
2023-02-12T13:23:37.013Z,103573.44
2023-02-12T13:26:13.624Z,103550.47
2023-02-12T13:28:52.047Z,103537.28
2023-02-12T13:31:35.221Z,103548.94
2023-02-12T13:34:10.664Z,103516.03
2023-02-12T13:36:44.837Z,103523.22
2023-02-12T13:39:28.597Z,103534.88
2023-02-12T13:42:11.879Z,103523.44
2023-02-12T13:44:48.497Z,103510.16
2023-02-12T13:47:40.960Z,103510.09
2023-02-12T13:50:31.346Z,103512.84
2023-02-12T13:53:07.213Z,103488.09
2023-02-12T13:55:50.295Z,103504.03
2023-02-12T13:59:01.140Z,103492.56
2023-02-12T14:01:51.403Z,103480.13
2023-02-12T14:04:48.944Z,103448.16
2023-02-12T14:07:17.837Z,103469.38
2023-02-12T14:10:03.288Z,103491.38
2023-02-12T14:12:42.931Z,103476.25
2023-02-12T14:15:21.706Z,103493.00
2023-02-12T14:17:56.103Z,103504.34
2023-02-12T14:20:40.364Z,103504.47
2023-02-12T14:23:32.519Z,103494.59
2023-02-12T14:26:18.937Z,103495.41
2023-02-12T14:29:21.636Z,103498.06
2023-02-12T14:31:49.587Z,103499.91
2023-02-12T14:34:48.422Z,103491.00
2023-02-12T14:37:38.571Z,103490.16
2023-02-12T14:40:32.620Z,103490.13
2023-02-12T14:43:03.380Z,103499.84
2023-02-12T14:45:52.469Z,103482.88
2023-02-12T14:49:10.203Z,103490.94
2023-02-12T14:51:44.727Z,103495.25
2023-02-12T14:54:21.861Z,103498.78
2023-02-12T14:56:54.332Z,103465.81
2023-02-12T14:59:33.435Z,103471.97
2023-02-12T15:02:06.753Z,103491.44
2023-02-12T15:04:39.496Z,103505.59
2023-02-12T15:07:28.839Z,103485.16
2023-02-12T15:10:10.239Z,103472.78
2023-02-12T15:12:46.482Z,103497.72
2023-02-12T15:15:24.420Z,103487.91
2023-02-12T15:18:05.683Z,103502.88
2023-02-12T15:20:40.543Z,103464.91
2023-02-12T15:23:35.731Z,103480.75
2023-02-12T15:26:12.865Z,103507.22
2023-02-12T15:28:46.046Z,103510.69
2023-02-12T15:31:20.646Z,103523.09
2023-02-12T15:33:56.259Z,103512.44
2023-02-12T15:36:26.624Z,103496.53
2023-02-12T15:39:00.810Z,103512.50
2023-02-12T15:41:42.028Z,103515.97
2023-02-12T15:44:35.135Z,103516.91
2023-02-12T15:47:14.634Z,103495.63
2023-02-12T15:49:45.003Z,103521.19
2023-02-12T15:52:22.400Z,103519.50
2023-02-12T15:54:56.181Z,103513.13
2023-02-12T15:57:26.738Z,103508.66
2023-02-12T15:59:57.362Z,103508.81
2023-02-12T16:02:29.689Z,103517.50
2023-02-12T16:05:00.040Z,103518.34
2023-02-12T16:07:35.008Z,103517.38
2023-02-12T16:10:03.909Z,103519.16
2023-02-12T16:12:37.679Z,103527.13
2023-02-12T16:15:08.986Z,103524.47
2023-02-12T16:17:38.375Z,103522.56
2023-02-12T16:20:25.558Z,103514.41
2023-02-12T16:23:04.747Z,103541.13
2023-02-12T16:25:43.000Z,103517.03
2023-02-12T16:28:26.887Z,103515.97
2023-02-12T16:31:09.424Z,103531.84
2023-02-12T16:33:45.361Z,103541.56
2023-02-12T16:36:30.517Z,103553.97
2023-02-12T16:39:11.613Z,103555.66
2023-02-12T16:42:04.808Z,103546.78
2023-02-12T16:44:34.866Z,103554.69
2023-02-12T16:47:07.321Z,103553.72
2023-02-12T16:49:41.628Z,103536.78
2023-02-12T16:52:47.150Z,103556.16
2023-02-12T16:55:34.196Z,103535.78
2023-02-12T16:58:05.700Z,103571.19
2023-02-12T17:00:35.048Z,103577.28
2023-02-12T17:03:19.568Z,103591.34
2023-02-12T17:05:58.354Z,103594.00
2023-02-12T17:08:29.019Z,103599.28
2023-02-12T17:11:24.329Z,103579.53
2023-02-12T17:13:55.004Z,103611.53
2023-02-12T17:16:31.245Z,103603.59
2023-02-12T17:19:01.476Z,103600.94
2023-02-12T17:22:02.756Z,103614.16
2023-02-12T17:24:26.696Z,103625.56
2023-02-12T17:26:56.365Z,103625.47
2023-02-12T17:29:30.922Z,103631.56
2023-02-12T17:31:59.550Z,103635.84
2023-02-12T17:34:34.077Z,103653.44
2023-02-12T17:38:44.346Z,103635.75
2023-02-12T17:40:01.529Z,103638.25
2023-02-12T17:42:36.643Z,103668.38
2023-02-12T17:45:09.529Z,103668.34
2023-02-12T17:47:40.590Z,103671.84
2023-02-12T17:50:10.189Z,103679.69
2023-02-12T17:52:38.277Z,103681.34
2023-02-12T17:55:10.637Z,103690.06
2023-02-12T17:57:39.292Z,103690.16
2023-02-12T18:00:08.997Z,103686.56
2023-02-12T18:02:39.125Z,103680.25
2023-02-12T18:05:07.759Z,103693.56
2023-02-12T18:07:38.033Z,103674.88
2023-02-12T18:10:13.784Z,103689.06
2023-02-12T18:12:41.930Z,103694.28
2023-02-12T18:15:11.082Z,103696.97
2023-02-12T18:17:45.132Z,103703.09
2023-02-12T18:20:13.712Z,103698.59
2023-02-12T18:22:41.638Z,103716.31
2023-02-12T18:25:12.969Z,103714.47
2023-02-12T18:27:42.159Z,103712.59
2023-02-12T18:30:11.753Z,103724.97
2023-02-12T18:32:42.657Z,103721.41
2023-02-12T18:35:16.385Z,103715.19
2023-02-12T18:37:45.635Z,103725.75
2023-02-12T18:40:17.926Z,103713.25
2023-02-12T18:42:48.006Z,103735.47
2023-02-12T18:45:26.216Z,103736.34
2023-02-12T18:48:02.782Z,103727.56
2023-02-12T18:50:37.574Z,103716.97
2023-02-12T18:53:07.848Z,103728.41
2023-02-12T18:55:57.713Z,103732.75
2023-02-12T18:58:27.328Z,103698.97
2023-02-12T19:00:59.703Z,103717.59
2023-02-12T19:03:27.881Z,103727.47
2023-02-12T19:06:06.363Z,103729.19
2023-02-12T19:08:36.789Z,103730.94
2023-02-12T19:11:06.699Z,103737.00
2023-02-12T19:13:35.783Z,103741.53
2023-02-12T19:16:08.014Z,103738.94
2023-02-12T19:18:39.308Z,103748.53
2023-02-12T19:21:13.024Z,103731.69
2023-02-12T19:23:41.835Z,103738.75
2023-02-12T19:26:17.800Z,103731.69
2023-02-12T19:28:45.777Z,103741.53
2023-02-12T19:31:28.262Z,103731.66
2023-02-12T19:33:58.156Z,103700.50
2023-02-12T19:36:29.232Z,103715.69
2023-02-12T19:39:00.279Z,103705.94
2023-02-12T19:41:32.857Z,103724.50
2023-02-12T19:44:03.595Z,103718.34
2023-02-12T19:46:32.278Z,103709.38
2023-02-12T19:49:03.653Z,103729.72
2023-02-12T19:51:33.558Z,103715.34
2023-02-12T19:54:02.894Z,103711.72
2023-02-12T19:56:41.147Z,103730.31
2023-02-12T19:59:20.227Z,103745.28
2023-02-12T20:01:48.978Z,103734.72
2023-02-12T20:04:21.264Z,103742.44
2023-02-12T20:06:57.892Z,103737.91
2023-02-12T20:09:27.488Z,103756.41
2023-02-12T20:11:59.649Z,103761.72
2023-02-12T20:14:28.949Z,103768.72
2023-02-12T20:16:59.513Z,103766.22
2023-02-12T20:19:30.861Z,103775.06
2023-02-12T20:22:01.665Z,103764.47
2023-02-12T20:24:31.395Z,103748.38
2023-02-12T20:27:04.159Z,103775.75
2023-02-12T20:29:32.767Z,103770.47
2023-02-12T20:32:02.062Z,103764.28
2023-02-12T20:34:49.938Z,103759.78
2023-02-12T20:37:20.748Z,103769.47
2023-02-12T20:39:48.781Z,103754.44
2023-02-12T20:42:20.106Z,103778.31
2023-02-12T20:44:51.768Z,103761.44
2023-02-12T20:47:28.316Z,103769.69
2023-02-12T20:50:06.783Z,103759.97
2023-02-12T20:52:44.340Z,103774.97
2023-02-12T20:55:12.367Z,103772.38
2023-02-12T20:57:43.742Z,103770.56
2023-02-12T21:00:12.875Z,103773.31
2023-02-12T21:02:41.068Z,103765.28
2023-02-12T21:05:12.692Z,103774.84
2023-02-12T21:07:42.490Z,103768.66
2023-02-12T21:10:11.669Z,103752.03
2023-02-12T21:12:41.068Z,103780.28
2023-02-12T21:15:11.282Z,103779.28
2023-02-12T21:17:39.334Z,103765.91
2023-02-12T21:21:44.305Z,103776.44
2023-02-12T21:23:02.310Z,103766.63
2023-02-12T21:25:30.402Z,103776.38
2023-02-12T21:28:00.866Z,103775.47
2023-02-12T21:30:32.590Z,103772.97
2023-02-12T21:33:04.432Z,103785.16
2023-02-12T21:35:39.762Z,103785.13
2023-02-12T21:38:13.690Z,103779.81
2023-02-12T21:40:46.635Z,103774.47
2023-02-12T21:43:37.265Z,103757.59
2023-02-12T21:46:05.935Z,103779.19
2023-02-12T21:48:34.176Z,103786.13
2023-02-12T21:51:02.929Z,103773.78
2023-02-12T21:53:30.865Z,103777.34
2023-02-12T21:56:03.293Z,103770.25
2023-02-12T21:58:33.078Z,103779.94
2023-02-12T22:01:08.151Z,103758.75
2023-02-12T22:03:36.226Z,103771.13
2023-02-12T22:06:25.278Z,103770.25
2023-02-12T22:08:53.740Z,103775.47
2023-02-12T22:11:23.336Z,103756.13
2023-02-12T22:13:54.472Z,103760.50
2023-02-12T22:16:27.266Z,103759.59
2023-02-12T22:18:57.291Z,103741.75
2023-02-12T22:21:26.871Z,103749.03
2023-02-12T22:23:55.598Z,103752.59
2023-02-12T22:26:25.800Z,103749.81
2023-02-12T22:28:57.921Z,103746.31
2023-02-12T22:31:29.303Z,103746.16
2023-02-12T22:33:59.462Z,103760.38
2023-02-12T22:36:28.424Z,103751.50
2023-02-12T22:38:58.998Z,103755.00
2023-02-12T22:41:30.268Z,103761.19
2023-02-12T22:44:01.840Z,103758.56
2023-02-12T22:46:29.851Z,103758.44
2023-02-12T22:48:58.545Z,103752.41
2023-02-12T22:51:29.093Z,103761.44
2023-02-12T22:53:58.062Z,103771.19
2023-02-12T22:56:27.273Z,103771.34
2023-02-12T22:58:56.511Z,103767.84
2023-02-12T23:01:26.605Z,103766.06
2023-02-12T23:03:55.447Z,103768.66
2023-02-12T23:06:25.689Z,103759.75
2023-02-12T23:08:56.413Z,103732.13
2023-02-12T23:11:24.983Z,103755.28
2023-02-12T23:13:53.516Z,103757.91
2023-02-12T23:16:22.618Z,103760.63
2023-02-12T23:18:55.442Z,103754.56
2023-02-12T23:21:24.477Z,103752.84
2023-02-12T23:23:52.479Z,103746.53
2023-02-12T23:26:20.488Z,103758.06
2023-02-12T23:28:48.691Z,103751.91
2023-02-12T23:31:16.881Z,103753.66
2023-02-12T23:33:44.924Z,103750.94
2023-02-12T23:36:14.186Z,103745.59
2023-02-12T23:38:42.049Z,103733.97
2023-02-12T23:41:10.180Z,103746.53
2023-02-12T23:43:38.279Z,103739.31
2023-02-12T23:46:06.705Z,103747.25
2023-02-12T23:48:34.755Z,103749.97
2023-02-12T23:51:02.571Z,103742.03
2023-02-12T23:53:31.981Z,103734.00
2023-02-12T23:56:01.852Z,103741.94
2023-02-12T23:58:29.736Z,103736.63
